Wind Gusting 00 knots
03
April 25, 2017 8:03 PM EDT
Weather Information
Wind Direction
  170 °
Wind Speed
  03 kt (3 mph)
Wind Gust
  00 kt (0 mph)
Altimeter
29.69 in
Visibility
10 SM
Temperature
21° C
70° F
Dewpoint
12° C
54° F
Humidity
57%
Sky Condition
Clear
VFR

METAR KIMS 260003Z AUTO 17003KT 10SM CLR 21/12 A2969 RMK AO1

*Background is not an actual portrayal of the airport.